ENRM

Details ICAO ENRM (RVK)
Name Rorvik Ryum
Region Norway
Timezone Europe/Oslo (UTC+2.0)
Plans Departing 3
Arriving 9
Stats Elevation 13 ft / 4 m (AMSL)
Location 64.837112° 11.143112°
Runways 1
Magnetic Variation 3.796° E
Sunrise 2018-05-21 01:33:52 UTC / 2018-05-21 03:33:52 Local
Sunset 2018-05-21 20:53:00 UTC / 2018-05-21 22:53:00 Local
Advertisement - Login to hide

Runways

ID Width Length Bearing (true) Bearing (mag) Surface Threshold Offset Overrun Length
04 98 ft / 30 m 2,889 ft / 880 m 40.99° 37.19° Asphalt 0 ft / 0 m 0 ft / 0 m
22 98 ft / 30 m 2,889 ft / 880 m 221.01° 217.21° Asphalt 0 ft / 0 m 0 ft / 0 m

Map

Weather


0- 5 10 15 20 25 30 35+ Temperature / ° C

Clouds and Precipitation
Forecast for 2018-05-21 18:00 UTC. Updated an hour ago

Ground ~20,000 ft ~40,000 ft Winds

METAR

ENRM 211820Z 16006KT CAVOK 13/08 Q1023

TAF

Not found
Warning: Do not use this data for real-world aviation or navigation. No guarantee of current accuracy is given.